sensor_id;sensor_type;location;lat;lon;timestamp;pressure;altitude;pressure_sealevel;temperature
34901;BMP280;21112;51.976;5.660;2023-12-07T00:01:07;100971.22;;;-1.44
34901;BMP280;21112;51.976;5.660;2023-12-07T00:03:37;100978.81;;;-1.38
34901;BMP280;21112;51.976;5.660;2023-12-07T00:06:05;100982.97;;;-1.35
34901;BMP280;21112;51.976;5.660;2023-12-07T00:08:32;100977.19;;;-1.36
34901;BMP280;21112;51.976;5.660;2023-12-07T00:10:59;100977.81;;;-1.43
34901;BMP280;21112;51.976;5.660;2023-12-07T00:13:26;100972.81;;;-1.46
34901;BMP280;21112;51.976;5.660;2023-12-07T00:15:55;100973.50;;;-1.50
34901;BMP280;21112;51.976;5.660;2023-12-07T00:18:22;100971.78;;;-1.54
34901;BMP280;21112;51.976;5.660;2023-12-07T00:20:50;100967.78;;;-1.50
34901;BMP280;21112;51.976;5.660;2023-12-07T00:23:17;100984.13;;;-1.52
34901;BMP280;21112;51.976;5.660;2023-12-07T00:25:44;100970.06;;;-1.56
34901;BMP280;21112;51.976;5.660;2023-12-07T00:28:11;100971.53;;;-1.61
34901;BMP280;21112;51.976;5.660;2023-12-07T00:30:38;100973.38;;;-1.54
34901;BMP280;21112;51.976;5.660;2023-12-07T00:33:06;100968.47;;;-1.54
34901;BMP280;21112;51.976;5.660;2023-12-07T00:35:32;100967.78;;;-1.49
34901;BMP280;21112;51.976;5.660;2023-12-07T00:38:00;100966.13;;;-1.50
34901;BMP280;21112;51.976;5.660;2023-12-07T00:40:27;100966.84;;;-1.54
34901;BMP280;21112;51.976;5.660;2023-12-07T00:42:54;100966.78;;;-1.55
34901;BMP280;21112;51.976;5.660;2023-12-07T00:45:20;100963.28;;;-1.62
34901;BMP280;21112;51.976;5.660;2023-12-07T00:47:47;100960.72;;;-1.66
34901;BMP280;21112;51.976;5.660;2023-12-07T00:50:14;100965.59;;;-1.68
34901;BMP280;21112;51.976;5.660;2023-12-07T00:52:40;100956.06;;;-1.57
34901;BMP280;21112;51.976;5.660;2023-12-07T00:55:08;100965.03;;;-1.59
34901;BMP280;21112;51.976;5.660;2023-12-07T00:57:35;100964.94;;;-1.62
34901;BMP280;21112;51.976;5.660;2023-12-07T01:00:02;100961.50;;;-1.67
34901;BMP280;21112;51.976;5.660;2023-12-07T01:02:29;100960.63;;;-1.69
34901;BMP280;21112;51.976;5.660;2023-12-07T01:04:56;100961.25;;;-1.76
34901;BMP280;21112;51.976;5.660;2023-12-07T01:07:23;100966.06;;;-1.79
34901;BMP280;21112;51.976;5.660;2023-12-07T01:09:49;100966.13;;;-1.78
34901;BMP280;21112;51.976;5.660;2023-12-07T01:12:18;100968.09;;;-1.66
34901;BMP280;21112;51.976;5.660;2023-12-07T01:14:44;100966.88;;;-1.52
34901;BMP280;21112;51.976;5.660;2023-12-07T01:17:11;100966.69;;;-1.58
34901;BMP280;21112;51.976;5.660;2023-12-07T01:19:38;100964.16;;;-1.61
34901;BMP280;21112;51.976;5.660;2023-12-07T01:22:04;100959.84;;;-1.68
34901;BMP280;21112;51.976;5.660;2023-12-07T01:24:31;100977.88;;;-1.69
34901;BMP280;21112;51.976;5.660;2023-12-07T01:26:58;100973.00;;;-1.68
34901;BMP280;21112;51.976;5.660;2023-12-07T01:29:26;100977.13;;;-1.67
34901;BMP280;21112;51.976;5.660;2023-12-07T01:31:53;100977.31;;;-1.61
34901;BMP280;21112;51.976;5.660;2023-12-07T01:34:19;100969.94;;;-1.59
34901;BMP280;21112;51.976;5.660;2023-12-07T01:36:46;100967.47;;;-1.59
34901;BMP280;21112;51.976;5.660;2023-12-07T01:39:13;100968.38;;;-1.57
34901;BMP280;21112;51.976;5.660;2023-12-07T01:41:39;100976.72;;;-1.52
34901;BMP280;21112;51.976;5.660;2023-12-07T01:44:06;100979.25;;;-1.51
34901;BMP280;21112;51.976;5.660;2023-12-07T01:46:34;100977.69;;;-1.47
34901;BMP280;21112;51.976;5.660;2023-12-07T01:49:02;100975.47;;;-1.40
34901;BMP280;21112;51.976;5.660;2023-12-07T01:51:29;100978.84;;;-1.36
34901;BMP280;21112;51.976;5.660;2023-12-07T01:53:56;100970.59;;;-1.37
34901;BMP280;21112;51.976;5.660;2023-12-07T01:56:25;100983.72;;;-1.38
34901;BMP280;21112;51.976;5.660;2023-12-07T01:58:52;100984.56;;;-1.37
34901;BMP280;21112;51.976;5.660;2023-12-07T02:01:19;100983.91;;;-1.32
34901;BMP280;21112;51.976;5.660;2023-12-07T02:03:47;100972.50;;;-1.28
34901;BMP280;21112;51.976;5.660;2023-12-07T02:06:14;100971.72;;;-1.27
34901;BMP280;21112;51.976;5.660;2023-12-07T02:08:41;100971.00;;;-1.23
34901;BMP280;21112;51.976;5.660;2023-12-07T02:11:08;100988.38;;;-1.19
34901;BMP280;21112;51.976;5.660;2023-12-07T02:13:37;100972.91;;;-1.13
34901;BMP280;21112;51.976;5.660;2023-12-07T02:16:10;100978.09;;;-1.04
34901;BMP280;21112;51.976;5.660;2023-12-07T02:18:43;100984.88;;;-0.97
34901;BMP280;21112;51.976;5.660;2023-12-07T02:21:16;100976.00;;;-0.91
34901;BMP280;21112;51.976;5.660;2023-12-07T02:23:44;100987.88;;;-0.78
34901;BMP280;21112;51.976;5.660;2023-12-07T02:26:13;100974.00;;;-0.74
34901;BMP280;21112;51.976;5.660;2023-12-07T02:28:42;100972.38;;;-0.72
34901;BMP280;21112;51.976;5.660;2023-12-07T02:31:09;100965.94;;;-0.67
34901;BMP280;21112;51.976;5.660;2023-12-07T02:33:35;100973.41;;;-0.66
34901;BMP280;21112;51.976;5.660;2023-12-07T02:36:02;100966.81;;;-0.65
34901;BMP280;21112;51.976;5.660;2023-12-07T02:38:29;100975.97;;;-0.61
34901;BMP280;21112;51.976;5.660;2023-12-07T02:40:57;100966.22;;;-0.57
34901;BMP280;21112;51.976;5.660;2023-12-07T02:43:25;100972.94;;;-0.51
34901;BMP280;21112;51.976;5.660;2023-12-07T02:45:54;100971.34;;;-0.49
34901;BMP280;21112;51.976;5.660;2023-12-07T02:48:21;100969.00;;;-0.45
34901;BMP280;21112;51.976;5.660;2023-12-07T02:50:47;100964.13;;;-0.42
34901;BMP280;21112;51.976;5.660;2023-12-07T02:53:14;100963.47;;;-0.36
34901;BMP280;21112;51.976;5.660;2023-12-07T02:55:42;100958.63;;;-0.30
34901;BMP280;21112;51.976;5.660;2023-12-07T02:58:09;100966.03;;;-0.32
34901;BMP280;21112;51.976;5.660;2023-12-07T03:00:36;100961.09;;;-0.30
34901;BMP280;21112;51.976;5.660;2023-12-07T03:03:04;100967.16;;;-0.19
34901;BMP280;21112;51.976;5.660;2023-12-07T03:05:30;100960.50;;;-0.23
34901;BMP280;21112;51.976;5.660;2023-12-07T03:07:57;100968.81;;;-0.18
34901;BMP280;21112;51.976;5.660;2023-12-07T03:10:24;100968.19;;;-0.10
34901;BMP280;21112;51.976;5.660;2023-12-07T03:12:51;100967.50;;;-0.06
34901;BMP280;21112;51.976;5.660;2023-12-07T03:15:17;100966.53;;;-0.11
34901;BMP280;21112;51.976;5.660;2023-12-07T03:17:44;100972.28;;;-0.12
34901;BMP280;21112;51.976;5.660;2023-12-07T03:20:12;100976.25;;;-0.17
34901;BMP280;21112;51.976;5.660;2023-12-07T03:22:39;100970.47;;;-0.17
34901;BMP280;21112;51.976;5.660;2023-12-07T03:25:06;100973.75;;;-0.20
34901;BMP280;21112;51.976;5.660;2023-12-07T03:27:33;100978.63;;;-0.21
34901;BMP280;21112;51.976;5.660;2023-12-07T03:30:00;100978.47;;;-0.27
34901;BMP280;21112;51.976;5.660;2023-12-07T03:32:27;100981.50;;;-0.37
34901;BMP280;21112;51.976;5.660;2023-12-07T03:34:54;100976.47;;;-0.42
34901;BMP280;21112;51.976;5.660;2023-12-07T03:37:22;100982.09;;;-0.47
34901;BMP280;21112;51.976;5.660;2023-12-07T03:39:49;100986.97;;;-0.49
34901;BMP280;21112;51.976;5.660;2023-12-07T03:42:17;100979.63;;;-0.47
34901;BMP280;21112;51.976;5.660;2023-12-07T03:44:44;100977.88;;;-0.51
34901;BMP280;21112;51.976;5.660;2023-12-07T03:47:10;100990.94;;;-0.55
34901;BMP280;21112;51.976;5.660;2023-12-07T03:49:37;100976.78;;;-0.61
34901;BMP280;21112;51.976;5.660;2023-12-07T03:52:06;100975.75;;;-0.70
34901;BMP280;21112;51.976;5.660;2023-12-07T03:54:34;100983.75;;;-0.79
34901;BMP280;21112;51.976;5.660;2023-12-07T03:57:01;100989.38;;;-0.83
34901;BMP280;21112;51.976;5.660;2023-12-07T03:59:30;100986.75;;;-0.89
34901;BMP280;21112;51.976;5.660;2023-12-07T04:01:57;100985.53;;;-1.03
34901;BMP280;21112;51.976;5.660;2023-12-07T04:04:26;100992.97;;;-1.01
34901;BMP280;21112;51.976;5.660;2023-12-07T04:06:53;100987.13;;;-1.05
34901;BMP280;21112;51.976;5.660;2023-12-07T04:09:20;100990.47;;;-1.03
34901;BMP280;21112;51.976;5.660;2023-12-07T04:11:51;100991.28;;;-1.04
34901;BMP280;21112;51.976;5.660;2023-12-07T04:14:17;100997.06;;;-1.02
34901;BMP280;21112;51.976;5.660;2023-12-07T04:16:44;100990.69;;;-0.95
34901;BMP280;21112;51.976;5.660;2023-12-07T04:19:11;100988.91;;;-0.99
34901;BMP280;21112;51.976;5.660;2023-12-07T04:21:38;100990.53;;;-1.01
34901;BMP280;21112;51.976;5.660;2023-12-07T04:24:05;101000.44;;;-1.00
34901;BMP280;21112;51.976;5.660;2023-12-07T04:26:32;101005.66;;;-0.88
34901;BMP280;21112;51.976;5.660;2023-12-07T04:29:00;100999.47;;;-0.75
34901;BMP280;21112;51.976;5.660;2023-12-07T04:31:26;100999.00;;;-0.61
34901;BMP280;21112;51.976;5.660;2023-12-07T04:33:53;101001.63;;;-0.56
34901;BMP280;21112;51.976;5.660;2023-12-07T04:36:20;101001.78;;;-0.50
34901;BMP280;21112;51.976;5.660;2023-12-07T04:38:47;100996.19;;;-0.43
34901;BMP280;21112;51.976;5.660;2023-12-07T04:41:13;101004.53;;;-0.38
34901;BMP280;21112;51.976;5.660;2023-12-07T04:43:40;101000.75;;;-0.24
34901;BMP280;21112;51.976;5.660;2023-12-07T04:46:08;101002.53;;;-0.20
34901;BMP280;21112;51.976;5.660;2023-12-07T04:48:35;101000.16;;;-0.16
34901;BMP280;21112;51.976;5.660;2023-12-07T04:51:01;100995.31;;;-0.13
34901;BMP280;21112;51.976;5.660;2023-12-07T04:53:28;100992.94;;;-0.07
34901;BMP280;21112;51.976;5.660;2023-12-07T04:55:55;101003.72;;;-0.05
34901;BMP280;21112;51.976;5.660;2023-12-07T04:58:22;100998.03;;;-0.03
34901;BMP280;21112;51.976;5.660;2023-12-07T05:00:49;100998.94;;;0.02
34901;BMP280;21112;51.976;5.660;2023-12-07T05:03:17;101003.13;;;0.05
34901;BMP280;21112;51.976;5.660;2023-12-07T05:05:43;100990.06;;;0.09
34901;BMP280;21112;51.976;5.660;2023-12-07T05:08:10;100986.72;;;0.07
34901;BMP280;21112;51.976;5.660;2023-12-07T05:10:37;100996.63;;;0.07
34901;BMP280;21112;51.976;5.660;2023-12-07T05:13:04;100988.34;;;0.06
34901;BMP280;21112;51.976;5.660;2023-12-07T05:15:30;101001.50;;;0.05
34901;BMP280;21112;51.976;5.660;2023-12-07T05:17:57;100992.38;;;0.03
34901;BMP280;21112;51.976;5.660;2023-12-07T05:20:25;100994.75;;;-0.02
34901;BMP280;21112;51.976;5.660;2023-12-07T05:22:53;100993.81;;;-0.07
34901;BMP280;21112;51.976;5.660;2023-12-07T05:25:20;100988.88;;;-0.07
34901;BMP280;21112;51.976;5.660;2023-12-07T05:27:47;100988.81;;;-0.09
34901;BMP280;21112;51.976;5.660;2023-12-07T05:30:16;100988.72;;;-0.13
34901;BMP280;21112;51.976;5.660;2023-12-07T05:32:43;100985.28;;;-0.17
34901;BMP280;21112;51.976;5.660;2023-12-07T05:35:09;100985.28;;;-0.17
34901;BMP280;21112;51.976;5.660;2023-12-07T05:37:38;100982.81;;;-0.19
34901;BMP280;21112;51.976;5.660;2023-12-07T05:40:05;100991.84;;;-0.19
34901;BMP280;21112;51.976;5.660;2023-12-07T05:42:33;100988.50;;;-0.21
34901;BMP280;21112;51.976;5.660;2023-12-07T05:44:59;100984.22;;;-0.28
34901;BMP280;21112;51.976;5.660;2023-12-07T05:47:26;100995.59;;;-0.33
34901;BMP280;21112;51.976;5.660;2023-12-07T05:49:53;100988.13;;;-0.36
34901;BMP280;21112;51.976;5.660;2023-12-07T05:52:22;100985.63;;;-0.38
34901;BMP280;21112;51.976;5.660;2023-12-07T05:54:50;100980.75;;;-0.36
34901;BMP280;21112;51.976;5.660;2023-12-07T05:57:17;100981.50;;;-0.39
34901;BMP280;21112;51.976;5.660;2023-12-07T05:59:44;100978.91;;;-0.43
34901;BMP280;21112;51.976;5.660;2023-12-07T06:02:11;100978.78;;;-0.48
34901;BMP280;21112;51.976;5.660;2023-12-07T06:04:38;100978.72;;;-0.51
34901;BMP280;21112;51.976;5.660;2023-12-07T06:07:04;100975.41;;;-0.51
34901;BMP280;21112;51.976;5.660;2023-12-07T06:09:31;100977.09;;;-0.49
34901;BMP280;21112;51.976;5.660;2023-12-07T06:12:02;100982.13;;;-0.46
34901;BMP280;21112;51.976;5.660;2023-12-07T06:14:29;100980.50;;;-0.45
34901;BMP280;21112;51.976;5.660;2023-12-07T06:16:57;100979.69;;;-0.44
34901;BMP280;21112;51.976;5.660;2023-12-07T06:19:24;100989.53;;;-0.46
34901;BMP280;21112;51.976;5.660;2023-12-07T06:21:51;100989.53;;;-0.46
34901;BMP280;21112;51.976;5.660;2023-12-07T06:24:18;100984.66;;;-0.43
34901;BMP280;21112;51.976;5.660;2023-12-07T06:26:48;100993.03;;;-0.38
34901;BMP280;21112;51.976;5.660;2023-12-07T06:29:16;100988.66;;;-0.48
34901;BMP280;21112;51.976;5.660;2023-12-07T06:31:43;100998.19;;;-0.61
34901;BMP280;21112;51.976;5.660;2023-12-07T06:34:10;101002.94;;;-0.67
34901;BMP280;21112;51.976;5.660;2023-12-07T06:36:37;101006.00;;;-0.76
34901;BMP280;21112;51.976;5.660;2023-12-07T06:39:04;101000.41;;;-0.70
34901;BMP280;21112;51.976;5.660;2023-12-07T06:41:30;101008.75;;;-0.65
34901;BMP280;21112;51.976;5.660;2023-12-07T06:43:58;101010.88;;;-0.79
34901;BMP280;21112;51.976;5.660;2023-12-07T06:46:26;101013.28;;;-0.80
34901;BMP280;21112;51.976;5.660;2023-12-07T06:48:54;101007.50;;;-0.82
34901;BMP280;21112;51.976;5.660;2023-12-07T06:51:21;101012.44;;;-0.81
34901;BMP280;21112;51.976;5.660;2023-12-07T06:53:48;101000.91;;;-0.82
34901;BMP280;21112;51.976;5.660;2023-12-07T06:56:15;101003.38;;;-0.82
34901;BMP280;21112;51.976;5.660;2023-12-07T06:58:41;101000.09;;;-0.81
34901;BMP280;21112;51.976;5.660;2023-12-07T07:01:08;101009.09;;;-0.83
34901;BMP280;21112;51.976;5.660;2023-12-07T07:03:36;101006.81;;;-0.77
34901;BMP280;21112;51.976;5.660;2023-12-07T07:06:04;101001.06;;;-0.76
34901;BMP280;21112;51.976;5.660;2023-12-07T07:08:31;101009.22;;;-0.80
34901;BMP280;21112;51.976;5.660;2023-12-07T07:10:58;101013.91;;;-0.87
34901;BMP280;21112;51.976;5.660;2023-12-07T07:13:24;101007.38;;;-0.85
34901;BMP280;21112;51.976;5.660;2023-12-07T07:15:53;101008.28;;;-0.83
34901;BMP280;21112;51.976;5.660;2023-12-07T07:18:22;100997.63;;;-0.81
34901;BMP280;21112;51.976;5.660;2023-12-07T07:20:52;100995.22;;;-0.79
34901;BMP280;21112;51.976;5.660;2023-12-07T07:23:18;101003.44;;;-0.80
34901;BMP280;21112;51.976;5.660;2023-12-07T07:25:45;101010.81;;;-0.80
34901;BMP280;21112;51.976;5.660;2023-12-07T07:28:12;101008.06;;;-0.91
34901;BMP280;21112;51.976;5.660;2023-12-07T07:30:38;101017.09;;;-0.91
34901;BMP280;21112;51.976;5.660;2023-12-07T07:33:05;101015.69;;;-0.83
34901;BMP280;21112;51.976;5.660;2023-12-07T07:35:32;101014.91;;;-0.81
34901;BMP280;21112;51.976;5.660;2023-12-07T07:38:01;101022.31;;;-0.81
34901;BMP280;21112;51.976;5.660;2023-12-07T07:40:27;101018.34;;;-0.76
34901;BMP280;21112;51.976;5.660;2023-12-07T07:42:54;101017.53;;;-0.75
34901;BMP280;21112;51.976;5.660;2023-12-07T07:45:21;101021.59;;;-0.77
34901;BMP280;21112;51.976;5.660;2023-12-07T07:47:48;101020.06;;;-0.73
34901;BMP280;21112;51.976;5.660;2023-12-07T07:50:15;101015.28;;;-0.67
34901;BMP280;21112;51.976;5.660;2023-12-07T07:52:47;101018.56;;;-0.68
34901;BMP280;21112;51.976;5.660;2023-12-07T07:55:18;101015.34;;;-0.64
34901;BMP280;21112;51.976;5.660;2023-12-07T07:57:44;101021.03;;;-0.68
34901;BMP280;21112;51.976;5.660;2023-12-07T08:00:12;101017.72;;;-0.69
34901;BMP280;21112;51.976;5.660;2023-12-07T08:02:39;101021.13;;;-0.64
34901;BMP280;21112;51.976;5.660;2023-12-07T08:05:06;101021.72;;;-0.72
34901;BMP280;21112;51.976;5.660;2023-12-07T08:07:33;101027.25;;;-0.81
34901;BMP280;21112;51.976;5.660;2023-12-07T08:10:00;101031.31;;;-0.83
34901;BMP280;21112;51.976;5.660;2023-12-07T08:12:30;101022.47;;;-0.76
34901;BMP280;21112;51.976;5.660;2023-12-07T08:14:56;101031.47;;;-0.77
34901;BMP280;21112;51.976;5.660;2023-12-07T08:17:23;101020.84;;;-0.74
34901;BMP280;21112;51.976;5.660;2023-12-07T08:19:53;101021.81;;;-0.69
34901;BMP280;21112;51.976;5.660;2023-12-07T08:22:19;101013.47;;;-0.74
34901;BMP280;21112;51.976;5.660;2023-12-07T08:24:48;101007.72;;;-0.73
34901;BMP280;21112;51.976;5.660;2023-12-07T08:27:15;100999.53;;;-0.72
34901;BMP280;21112;51.976;5.660;2023-12-07T08:29:44;101007.81;;;-0.70
34901;BMP280;21112;51.976;5.660;2023-12-07T08:32:14;101010.53;;;-0.61
34901;BMP280;21112;51.976;5.660;2023-12-07T08:34:44;101003.00;;;-0.66
34901;BMP280;21112;51.976;5.660;2023-12-07T08:37:11;101005.25;;;-0.73
34901;BMP280;21112;51.976;5.660;2023-12-07T08:39:38;101010.94;;;-0.76
34901;BMP280;21112;51.976;5.660;2023-12-07T08:42:05;101002.56;;;-0.82
34901;BMP280;21112;51.976;5.660;2023-12-07T08:44:32;101007.81;;;-0.70
34901;BMP280;21112;51.976;5.660;2023-12-07T08:47:03;101017.13;;;-0.60
34901;BMP280;21112;51.976;5.660;2023-12-07T08:49:31;101015.63;;;-0.54
34901;BMP280;21112;51.976;5.660;2023-12-07T08:51:58;101013.06;;;-0.58
34901;BMP280;21112;51.976;5.660;2023-12-07T08:54:26;101012.22;;;-0.59
34901;BMP280;21112;51.976;5.660;2023-12-07T08:56:57;101019.59;;;-0.60
34901;BMP280;21112;51.976;5.660;2023-12-07T08:59:27;101021.31;;;-0.58
34901;BMP280;21112;51.976;5.660;2023-12-07T09:01:56;101026.25;;;-0.58
34901;BMP280;21112;51.976;5.660;2023-12-07T09:04:24;101019.78;;;-0.53
34901;BMP280;21112;51.976;5.660;2023-12-07T09:06:51;101010.03;;;-0.48
34901;BMP280;21112;51.976;5.660;2023-12-07T09:09:19;101011.06;;;-0.40
34901;BMP280;21112;51.976;5.660;2023-12-07T09:11:51;101007.72;;;-0.42
34901;BMP280;21112;51.976;5.660;2023-12-07T09:14:18;101001.78;;;-0.50
34901;BMP280;21112;51.976;5.660;2023-12-07T09:16:47;101007.53;;;-0.50
34901;BMP280;21112;51.976;5.660;2023-12-07T09:19:16;101005.97;;;-0.46
34901;BMP280;21112;51.976;5.660;2023-12-07T09:21:45;101009.25;;;-0.47
34901;BMP280;21112;51.976;5.660;2023-12-07T09:24:13;100996.16;;;-0.45
34901;BMP280;21112;51.976;5.660;2023-12-07T09:26:40;100995.41;;;-0.41
34901;BMP280;21112;51.976;5.660;2023-12-07T09:29:07;100995.50;;;-0.38
34901;BMP280;21112;51.976;5.660;2023-12-07T09:31:34;100999.56;;;-0.40
34901;BMP280;21112;51.976;5.660;2023-12-07T09:34:01;100995.53;;;-0.36
34901;BMP280;21112;51.976;5.660;2023-12-07T09:36:28;100993.84;;;-0.39
34901;BMP280;21112;51.976;5.660;2023-12-07T09:38:56;100989.81;;;-0.35
34901;BMP280;21112;51.976;5.660;2023-12-07T09:41:26;100992.34;;;-0.32
34901;BMP280;21112;51.976;5.660;2023-12-07T09:43:53;100998.19;;;-0.29
34901;BMP280;21112;51.976;5.660;2023-12-07T09:46:22;101003.16;;;-0.27
34901;BMP280;21112;51.976;5.660;2023-12-07T09:48:49;101000.09;;;-0.19
34901;BMP280;21112;51.976;5.660;2023-12-07T09:51:16;101006.00;;;-0.13
34901;BMP280;21112;51.976;5.660;2023-12-07T09:53:43;100999.44;;;-0.12
34901;BMP280;21112;51.976;5.660;2023-12-07T09:56:15;101005.34;;;-0.06
34901;BMP280;21112;51.976;5.660;2023-12-07T09:58:42;101000.34;;;-0.08
34901;BMP280;21112;51.976;5.660;2023-12-07T10:01:08;100996.22;;;-0.08
34901;BMP280;21112;51.976;5.660;2023-12-07T10:03:39;100998.53;;;-0.14
34901;BMP280;21112;51.976;5.660;2023-12-07T10:06:06;100997.72;;;-0.14
34901;BMP280;21112;51.976;5.660;2023-12-07T10:08:35;100987.84;;;-0.14
34901;BMP280;21112;51.976;5.660;2023-12-07T10:11:06;100981.41;;;-0.08
34901;BMP280;21112;51.976;5.660;2023-12-07T10:13:37;100974.00;;;-0.08
34901;BMP280;21112;51.976;5.660;2023-12-07T10:16:11;100960.84;;;-0.08
34901;BMP280;21112;51.976;5.660;2023-12-07T10:18:40;100961.84;;;-0.01
34901;BMP280;21112;51.976;5.660;2023-12-07T10:21:07;100946.19;;;-0.01
34901;BMP280;21112;51.976;5.660;2023-12-07T10:23:36;100945.41;;;0.00
34901;BMP280;21112;51.976;5.660;2023-12-07T10:26:06;100945.56;;;0.07
34901;BMP280;21112;51.976;5.660;2023-12-07T10:28:35;100940.53;;;0.03
34901;BMP280;21112;51.976;5.660;2023-12-07T10:31:02;100946.47;;;0.11
34901;BMP280;21112;51.976;5.660;2023-12-07T10:33:30;100936.66;;;0.14
34901;BMP280;21112;51.976;5.660;2023-12-07T10:35:56;100932.69;;;0.20
34901;BMP280;21112;51.976;5.660;2023-12-07T10:38:23;100930.25;;;0.23
34901;BMP280;21112;51.976;5.660;2023-12-07T10:41:00;100922.13;;;0.27
34901;BMP280;21112;51.976;5.660;2023-12-07T10:43:31;100912.38;;;0.33
34901;BMP280;21112;51.976;5.660;2023-12-07T10:46:00;100912.41;;;0.35
34901;BMP280;21112;51.976;5.660;2023-12-07T10:48:30;100906.06;;;0.47
34901;BMP280;21112;51.976;5.660;2023-12-07T10:51:00;100898.69;;;0.50
34901;BMP280;21112;51.976;5.660;2023-12-07T10:53:33;100902.31;;;0.64
34901;BMP280;21112;51.976;5.660;2023-12-07T10:56:10;100897.38;;;0.64
34901;BMP280;21112;51.976;5.660;2023-12-07T10:58:37;100885.84;;;0.66
34901;BMP280;21112;51.976;5.660;2023-12-07T11:01:07;100887.63;;;0.73
34901;BMP280;21112;51.976;5.660;2023-12-07T11:03:35;100871.94;;;0.73
34901;BMP280;21112;51.976;5.660;2023-12-07T11:06:03;100870.63;;;0.90
34901;BMP280;21112;51.976;5.660;2023-12-07T11:08:36;100876.34;;;0.87
34901;BMP280;21112;51.976;5.660;2023-12-07T11:11:08;100881.25;;;0.86
34901;BMP280;21112;51.976;5.660;2023-12-07T11:13:37;100873.16;;;0.91
34901;BMP280;21112;51.976;5.660;2023-12-07T11:16:05;100875.66;;;0.94
34901;BMP280;21112;51.976;5.660;2023-12-07T11:18:33;100865.81;;;0.97
34901;BMP280;21112;51.976;5.660;2023-12-07T11:21:00;100861.81;;;1.04
34901;BMP280;21112;51.976;5.660;2023-12-07T11:23:28;100859.50;;;1.13
34901;BMP280;21112;51.976;5.660;2023-12-07T11:25:55;100866.09;;;1.14
34901;BMP280;21112;51.976;5.660;2023-12-07T11:28:34;100846.41;;;1.18
34901;BMP280;21112;51.976;5.660;2023-12-07T11:31:06;100839.06;;;1.24
34901;BMP280;21112;51.976;5.660;2023-12-07T11:33:37;100831.66;;;1.26
34901;BMP280;21112;51.976;5.660;2023-12-07T11:36:06;100831.84;;;1.36
34901;BMP280;21112;51.976;5.660;2023-12-07T11:38:33;100827.81;;;1.44
34901;BMP280;21112;51.976;5.660;2023-12-07T11:41:00;100824.56;;;1.47
34901;BMP280;21112;51.976;5.660;2023-12-07T11:43:45;100822.13;;;1.48
34901;BMP280;21112;51.976;5.660;2023-12-07T11:46:13;100812.41;;;1.60
34901;BMP280;21112;51.976;5.660;2023-12-07T11:48:47;100807.38;;;1.57
34901;BMP280;21112;51.976;5.660;2023-12-07T11:51:19;100808.34;;;1.65
34901;BMP280;21112;51.976;5.660;2023-12-07T11:53:46;100809.19;;;1.67
34901;BMP280;21112;51.976;5.660;2023-12-07T11:56:16;100806.75;;;1.70
34901;BMP280;21112;51.976;5.660;2023-12-07T11:58:51;100798.38;;;1.62
34901;BMP280;21112;51.976;5.660;2023-12-07T12:01:18;100794.38;;;1.70
34901;BMP280;21112;51.976;5.660;2023-12-07T12:03:47;100794.28;;;1.63
34901;BMP280;21112;51.976;5.660;2023-12-07T12:06:14;100785.16;;;1.60
34901;BMP280;21112;51.976;5.660;2023-12-07T12:08:41;100791.84;;;1.66
34901;BMP280;21112;51.976;5.660;2023-12-07T12:11:09;100783.66;;;1.70
34901;BMP280;21112;51.976;5.660;2023-12-07T12:13:36;100783.72;;;1.74
34901;BMP280;21112;51.976;5.660;2023-12-07T12:16:04;100769.00;;;1.88
34901;BMP280;21112;51.976;5.660;2023-12-07T12:18:32;100756.75;;;1.98
34901;BMP280;21112;51.976;5.660;2023-12-07T12:21:01;100767.47;;;1.94
34901;BMP280;21112;51.976;5.660;2023-12-07T12:23:28;100759.22;;;1.95
34901;BMP280;21112;51.976;5.660;2023-12-07T12:25:55;100755.06;;;1.94
34901;BMP280;21112;51.976;5.660;2023-12-07T12:28:23;100746.13;;;2.07
34901;BMP280;21112;51.976;5.660;2023-12-07T12:30:51;100743.75;;;2.14
34901;BMP280;21112;51.976;5.660;2023-12-07T12:33:18;100738.84;;;2.20
34901;BMP280;21112;51.976;5.660;2023-12-07T12:35:47;100741.31;;;2.22
34901;BMP280;21112;51.976;5.660;2023-12-07T12:38:27;100729.06;;;2.32
34901;BMP280;21112;51.976;5.660;2023-12-07T12:40:56;100724.13;;;2.34
34901;BMP280;21112;51.976;5.660;2023-12-07T12:43:23;100721.56;;;2.26
34901;BMP280;21112;51.976;5.660;2023-12-07T12:45:50;100712.50;;;2.31
34901;BMP280;21112;51.976;5.660;2023-12-07T12:48:17;100716.78;;;2.43
34901;BMP280;21112;51.976;5.660;2023-12-07T12:50:44;100723.38;;;2.42
34901;BMP280;21112;51.976;5.660;2023-12-07T12:53:11;100707.78;;;2.54
34901;BMP280;21112;51.976;5.660;2023-12-07T12:55:40;100697.13;;;2.62
34901;BMP280;21112;51.976;5.660;2023-12-07T12:58:09;100689.75;;;2.71
34901;BMP280;21112;51.976;5.660;2023-12-07T13:00:40;100681.41;;;2.60
34901;BMP280;21112;51.976;5.660;2023-12-07T13:03:08;100673.13;;;2.61
34901;BMP280;21112;51.976;5.660;2023-12-07T13:05:37;100673.06;;;2.54
34901;BMP280;21112;51.976;5.660;2023-12-07T13:08:04;100673.94;;;2.59
34901;BMP280;21112;51.976;5.660;2023-12-07T13:10:31;100663.97;;;2.54
34901;BMP280;21112;51.976;5.660;2023-12-07T13:12:59;100640.88;;;2.57
34901;BMP280;21112;51.976;5.660;2023-12-07T13:15:26;100643.28;;;2.49
34901;BMP280;21112;51.976;5.660;2023-12-07T13:17:55;100632.44;;;2.40
34901;BMP280;21112;51.976;5.660;2023-12-07T13:20:22;100640.69;;;2.37
34901;BMP280;21112;51.976;5.660;2023-12-07T13:22:56;100618.31;;;2.31
34901;BMP280;21112;51.976;5.660;2023-12-07T13:25:23;100620.00;;;2.34
34901;BMP280;21112;51.976;5.660;2023-12-07T13:27:50;100615.78;;;2.25
34901;BMP280;21112;51.976;5.660;2023-12-07T13:30:23;100615.00;;;2.26
34901;BMP280;21112;51.976;5.660;2023-12-07T13:32:50;100607.50;;;2.20
34901;BMP280;21112;51.976;5.660;2023-12-07T13:35:17;100605.84;;;2.19
34901;BMP280;21112;51.976;5.660;2023-12-07T13:37:44;100609.13;;;2.20
34901;BMP280;21112;51.976;5.660;2023-12-07T13:40:10;100606.69;;;2.23
34901;BMP280;21112;51.976;5.660;2023-12-07T13:42:37;100605.84;;;2.19
34901;BMP280;21112;51.976;5.660;2023-12-07T13:45:05;100606.63;;;2.17
34901;BMP280;21112;51.976;5.660;2023-12-07T13:47:35;100606.41;;;1.94
34901;BMP280;21112;51.976;5.660;2023-12-07T13:50:06;100608.06;;;1.92
34901;BMP280;21112;51.976;5.660;2023-12-07T13:52:37;100603.91;;;1.93
34901;BMP280;21112;51.976;5.660;2023-12-07T13:55:29;100603.78;;;1.79
34901;BMP280;21112;51.976;5.660;2023-12-07T13:57:55;100596.38;;;1.79
34901;BMP280;21112;51.976;5.660;2023-12-07T14:00:24;100592.25;;;1.81
34901;BMP280;21112;51.976;5.660;2023-12-07T14:02:52;100586.41;;;1.76